sensor_id;sensor_type;location;lat;lon;timestamp;pressure;altitude;pressure_sealevel;temperature;humidity
46638;BME280;32365;46.938;7.390;2023-03-31T16:00:39;94321.88;;;9.98;62.62
46638;BME280;32365;46.938;7.390;2023-03-31T16:03:13;94319.84;;;10.05;62.61
46638;BME280;32365;46.938;7.390;2023-03-31T16:05:48;94312.34;;;10.04;61.61
46638;BME280;32365;46.938;7.390;2023-03-31T16:08:20;94313.94;;;10.10;60.87
46638;BME280;32365;46.938;7.390;2023-03-31T16:10:48;94312.13;;;10.10;61.00
46638;BME280;32365;46.938;7.390;2023-03-31T16:13:20;94305.44;;;10.20;61.31
46638;BME280;32365;46.938;7.390;2023-03-31T16:15:50;94308.09;;;10.35;62.31
46638;BME280;32365;46.938;7.390;2023-03-31T16:18:24;94304.91;;;10.17;62.73
46638;BME280;32365;46.938;7.390;2023-03-31T16:20:55;94300.72;;;10.59;60.87
46638;BME280;32365;46.938;7.390;2023-03-31T16:23:24;94302.41;;;11.22;58.68
46638;BME280;32365;46.938;7.390;2023-03-31T16:25:52;94298.53;;;11.61;56.73
46638;BME280;32365;46.938;7.390;2023-03-31T16:28:21;94294.91;;;11.83;56.31
46638;BME280;32365;46.938;7.390;2023-03-31T16:30:51;94295.16;;;11.45;57.48
46638;BME280;32365;46.938;7.390;2023-03-31T16:33:19;94276.16;;;10.77;59.19
46638;BME280;32365;46.938;7.390;2023-03-31T16:35:48;94288.06;;;10.68;59.44
46638;BME280;32365;46.938;7.390;2023-03-31T16:38:18;94281.50;;;10.40;60.56
46638;BME280;32365;46.938;7.390;2023-03-31T16:40:47;94294.56;;;10.17;60.59
46638;BME280;32365;46.938;7.390;2023-03-31T16:43:16;94287.31;;;10.20;61.33
46638;BME280;32365;46.938;7.390;2023-03-31T16:45:44;94286.88;;;10.28;60.92
46638;BME280;32365;46.938;7.390;2023-03-31T16:48:13;94269.16;;;10.04;61.41
46638;BME280;32365;46.938;7.390;2023-03-31T16:50:40;94271.00;;;10.09;60.92
46638;BME280;32365;46.938;7.390;2023-03-31T16:53:07;94283.88;;;10.04;60.87
46638;BME280;32365;46.938;7.390;2023-03-31T16:55:34;94283.56;;;9.95;61.50
46638;BME280;32365;46.938;7.390;2023-03-31T16:58:01;94277.88;;;9.93;61.86
46638;BME280;32365;46.938;7.390;2023-03-31T17:00:28;94276.31;;;9.86;61.35
46638;BME280;32365;46.938;7.390;2023-03-31T17:02:55;94275.06;;;9.94;60.60
46638;BME280;32365;46.938;7.390;2023-03-31T17:05:24;94266.50;;;9.89;60.44
46638;BME280;32365;46.938;7.390;2023-03-31T17:07:51;94253.03;;;9.86;59.55
46638;BME280;32365;46.938;7.390;2023-03-31T17:10:17;94279.16;;;9.85;62.01
46638;BME280;32365;46.938;7.390;2023-03-31T17:12:44;94291.28;;;9.84;61.21
46638;BME280;32365;46.938;7.390;2023-03-31T17:15:11;94345.81;;;9.83;61.90
46638;BME280;32365;46.938;7.390;2023-03-31T17:17:38;94408.41;;;9.58;69.08
46638;BME280;32365;46.938;7.390;2023-03-31T17:20:06;94442.16;;;8.23;80.02
46638;BME280;32365;46.938;7.390;2023-03-31T17:22:34;94433.13;;;7.28;87.95
46638;BME280;32365;46.938;7.390;2023-03-31T17:25:01;94439.16;;;6.93;91.57
46638;BME280;32365;46.938;7.390;2023-03-31T17:27:29;94433.94;;;6.76;93.89
46638;BME280;32365;46.938;7.390;2023-03-31T17:29:56;94422.22;;;6.56;95.19
46638;BME280;32365;46.938;7.390;2023-03-31T17:32:22;94439.34;;;6.51;95.77
46638;BME280;32365;46.938;7.390;2023-03-31T17:34:49;94446.25;;;6.50;96.43
46638;BME280;32365;46.938;7.390;2023-03-31T17:37:16;94450.31;;;6.46;97.06
46638;BME280;32365;46.938;7.390;2023-03-31T17:39:44;94459.25;;;6.43;97.09
46638;BME280;32365;46.938;7.390;2023-03-31T17:42:11;94447.59;;;6.41;95.80
46638;BME280;32365;46.938;7.390;2023-03-31T17:44:39;94438.22;;;6.46;96.92
46638;BME280;32365;46.938;7.390;2023-03-31T17:47:06;94423.03;;;6.45;97.04
46638;BME280;32365;46.938;7.390;2023-03-31T17:49:32;94421.78;;;6.47;96.56
46638;BME280;32365;46.938;7.390;2023-03-31T17:51:59;94421.69;;;6.42;95.45
46638;BME280;32365;46.938;7.390;2023-03-31T17:54:26;94415.31;;;6.45;95.22
46638;BME280;32365;46.938;7.390;2023-03-31T17:56:53;94404.78;;;6.46;93.53
46638;BME280;32365;46.938;7.390;2023-03-31T17:59:21;94393.28;;;6.49;94.42
46638;BME280;32365;46.938;7.390;2023-03-31T18:01:48;94401.91;;;6.43;92.62
46638;BME280;32365;46.938;7.390;2023-03-31T18:04:15;94408.38;;;6.45;92.58
46638;BME280;32365;46.938;7.390;2023-03-31T18:06:41;94420.44;;;6.45;92.25
46638;BME280;32365;46.938;7.390;2023-03-31T18:09:09;94420.91;;;6.54;92.31
46638;BME280;32365;46.938;7.390;2023-03-31T18:11:36;94416.75;;;6.53;92.62
46638;BME280;32365;46.938;7.390;2023-03-31T18:14:04;94414.50;;;6.44;92.06
46638;BME280;32365;46.938;7.390;2023-03-31T18:16:31;94426.94;;;6.47;92.14
46638;BME280;32365;46.938;7.390;2023-03-31T18:18:57;94424.16;;;6.49;92.70
46638;BME280;32365;46.938;7.390;2023-03-31T18:21:24;94425.03;;;6.55;92.10
46638;BME280;32365;46.938;7.390;2023-03-31T18:23:51;94433.06;;;6.58;91.44
46638;BME280;32365;46.938;7.390;2023-03-31T18:26:20;94436.97;;;6.61;90.36
46638;BME280;32365;46.938;7.390;2023-03-31T18:28:47;94427.13;;;6.58;88.94
46638;BME280;32365;46.938;7.390;2023-03-31T18:31:15;94416.28;;;6.56;87.94
46638;BME280;32365;46.938;7.390;2023-03-31T18:33:42;94423.22;;;6.67;86.97
46638;BME280;32365;46.938;7.390;2023-03-31T18:36:14;94421.78;;;6.59;86.39
46638;BME280;32365;46.938;7.390;2023-03-31T18:38:41;94433.53;;;6.67;85.74
46638;BME280;32365;46.938;7.390;2023-03-31T18:41:08;94430.03;;;6.73;85.22
46638;BME280;32365;46.938;7.390;2023-03-31T18:43:34;94435.50;;;6.77;85.30
46638;BME280;32365;46.938;7.390;2023-03-31T18:46:01;94448.38;;;6.77;83.78
46638;BME280;32365;46.938;7.390;2023-03-31T18:48:29;94447.91;;;6.80;83.77
46638;BME280;32365;46.938;7.390;2023-03-31T18:50:55;94443.22;;;6.77;82.61
46638;BME280;32365;46.938;7.390;2023-03-31T18:53:24;94457.97;;;6.82;81.53
46638;BME280;32365;46.938;7.390;2023-03-31T18:55:51;94441.09;;;6.86;81.10
46638;BME280;32365;46.938;7.390;2023-03-31T18:58:19;94460.91;;;6.85;82.03
46638;BME280;32365;46.938;7.390;2023-03-31T19:00:45;94445.09;;;6.82;81.31
46638;BME280;32365;46.938;7.390;2023-03-31T19:03:12;94447.22;;;6.85;81.63
46638;BME280;32365;46.938;7.390;2023-03-31T19:05:40;94451.06;;;6.82;82.15
46638;BME280;32365;46.938;7.390;2023-03-31T19:08:07;94445.59;;;6.78;81.51
46638;BME280;32365;46.938;7.390;2023-03-31T19:10:33;94441.88;;;6.74;82.55
46638;BME280;32365;46.938;7.390;2023-03-31T19:13:00;94451.06;;;6.70;82.88
46638;BME280;32365;46.938;7.390;2023-03-31T19:15:27;94451.84;;;6.71;82.87
46638;BME280;32365;46.938;7.390;2023-03-31T19:17:54;94449.41;;;6.64;82.61
46638;BME280;32365;46.938;7.390;2023-03-31T19:20:20;94455.53;;;6.63;82.78
46638;BME280;32365;46.938;7.390;2023-03-31T19:22:49;94460.13;;;6.73;82.07
46638;BME280;32365;46.938;7.390;2023-03-31T19:25:18;94466.59;;;6.75;81.98
46638;BME280;32365;46.938;7.390;2023-03-31T19:27:45;94472.53;;;6.76;81.78
46638;BME280;32365;46.938;7.390;2023-03-31T19:30:14;94475.09;;;6.76;82.07
46638;BME280;32365;46.938;7.390;2023-03-31T19:32:42;94469.50;;;6.79;81.42
46638;BME280;32365;46.938;7.390;2023-03-31T19:35:09;94483.38;;;6.78;81.81
46638;BME280;32365;46.938;7.390;2023-03-31T19:37:35;94484.13;;;6.90;81.23
46638;BME280;32365;46.938;7.390;2023-03-31T19:40:05;94487.72;;;6.89;80.48
46638;BME280;32365;46.938;7.390;2023-03-31T19:42:33;94492.97;;;6.95;80.13
46638;BME280;32365;46.938;7.390;2023-03-31T19:44:59;94498.44;;;6.98;80.19
46638;BME280;32365;46.938;7.390;2023-03-31T19:47:26;94490.28;;;7.01;79.87
46638;BME280;32365;46.938;7.390;2023-03-31T19:49:52;94490.72;;;6.98;80.37
46638;BME280;32365;46.938;7.390;2023-03-31T19:52:19;94493.44;;;7.03;80.37
46638;BME280;32365;46.938;7.390;2023-03-31T19:54:46;94491.84;;;7.02;78.52
46638;BME280;32365;46.938;7.390;2023-03-31T19:57:14;94479.19;;;7.01;77.76
46638;BME280;32365;46.938;7.390;2023-03-31T19:59:40;94487.81;;;7.06;76.91
46638;BME280;32365;46.938;7.390;2023-03-31T20:02:10;94513.88;;;7.10;76.57
46638;BME280;32365;46.938;7.390;2023-03-31T20:04:38;94514.44;;;7.12;76.73
46638;BME280;32365;46.938;7.390;2023-03-31T20:07:06;94504.72;;;7.02;78.47
46638;BME280;32365;46.938;7.390;2023-03-31T20:09:32;94499.00;;;7.00;79.39
46638;BME280;32365;46.938;7.390;2023-03-31T20:11:59;94499.50;;;6.85;81.08
46638;BME280;32365;46.938;7.390;2023-03-31T20:14:27;94498.69;;;6.85;80.90
46638;BME280;32365;46.938;7.390;2023-03-31T20:16:54;94507.53;;;6.89;80.73
46638;BME280;32365;46.938;7.390;2023-03-31T20:19:24;94508.31;;;6.89;79.70
46638;BME280;32365;46.938;7.390;2023-03-31T20:21:52;94510.78;;;6.84;81.31
46638;BME280;32365;46.938;7.390;2023-03-31T20:24:20;94502.06;;;6.73;82.77
46638;BME280;32365;46.938;7.390;2023-03-31T20:26:46;94502.59;;;6.63;83.99
46638;BME280;32365;46.938;7.390;2023-03-31T20:29:13;94504.75;;;6.55;85.38
46638;BME280;32365;46.938;7.390;2023-03-31T20:31:41;94496.03;;;6.44;84.92
46638;BME280;32365;46.938;7.390;2023-03-31T20:34:11;94499.03;;;6.41;84.64
46638;BME280;32365;46.938;7.390;2023-03-31T20:36:40;94492.13;;;6.41;85.57
46638;BME280;32365;46.938;7.390;2023-03-31T20:39:07;94489.53;;;6.41;86.68
46638;BME280;32365;46.938;7.390;2023-03-31T20:41:35;94480.59;;;6.44;84.07
46638;BME280;32365;46.938;7.390;2023-03-31T20:44:04;94471.63;;;6.46;82.00
